Airport View

Enter AWOS ICAO identifier for current METAR.

ex. KFNL

KGAF 310355Z AUTO 18007KT 10SM CLR 09/00 A3026 RMK AO2

31 May 2020 03:59

Frequency: 118.625

Phone: 701-352-0581

Other Area AWOS: K2C8 - KRDR - KHCO - KGFK

TAF KRDR 310200Z 3102/0108 VRB06KT 9999 SKC QNH3022INS BECMG 3112/3113 16010G15KT 9999 SCT065 QNH2997INS BECMG 3119/3120 16020G25KT 9999 BKN055 510012 QNH2992INS BECMG 0101/0102 16012KT 9999 BKN045 510053 QNH2977INS TX24/3122Z TN07/3111Z